KOLG

Solon Springs Municipal Airport

Solon Springs, Wisconsin, USA
METAR KOLG 151915Z AUTO 31007KT 10SM CLR M08/M16 A2995 RMK AO1
Observed Flight Rules
Feb-15 @ 19:15 UTC (23 minutes ago) Visual Flight Rules
Wind Visibility Clouds
310° at 7 knots 10 miles
  • Clear skies
Temperatures Readings
Current -8°C / 18°F
Dewpoint -16°C / 3°F
Humidity 53%
Altimeter 29.95" Hg
Pressure 1014.22 hPa
Elevation 336
METAR KOLG 151915Z AUTO 31007KT 10SM CLR M08/M16 A2995 RMK AO1
Observed Flight Rules
Feb-15 @ 19:15 UTC
(23 minutes ago)
VFR
Wind Visibility
310° at 7 knots 10 miles
Clouds
  • Clear skies
Temperature Dewpoint
-8°C / 18°F -16°C / 3°F
Humidity Altimeter Pressure
53% 29.95" Hg 1014.22 hPa